Time;durP1;ratioP1;P1;durP2;ratioP2;P2;SDS_P1;SDS_P2;PMS_P1;PMS_P2;Temp;Humidity;BMP_temperature;BMP_pressure;BME280_temperature;BME280_humidity;BME280_pressure;Samples;Min_cycle;Max_cycle;Signal;HPM_P1;HPM_P2
2022/05/08 00:02:22;;;;;;;;;10.00;10.00;;;;;14.45;65.51;100757.78;5077510;28;8925;-64
2022/05/08 00:04:51;;;;;;;;;5.00;4.75;;;;;14.43;65.08;100755.22;5078146;28;8863;-63
2022/05/08 00:07:19;;;;;;;;;3.00;3.00;;;;;14.42;66.01;100756.19;5077925;28;8854;-64
2022/05/08 00:09:58;;;;;;;;;15.00;14.50;;;;;14.38;65.60;100754.78;5078137;28;8832;-64
2022/05/08 00:12:26;;;;;;;;;13.00;11.50;;;;;14.35;66.10;100755.00;5077929;28;8917;-65
2022/05/08 00:14:54;;;;;;;;;13.00;12.25;;;;;14.33;66.07;100750.78;5077674;28;8870;-64
2022/05/08 00:17:21;;;;;;;;;12.50;10.00;;;;;14.29;66.15;100752.00;5077548;28;8917;-63
2022/05/08 00:19:50;;;;;;;;;13.00;10.50;;;;;14.25;66.48;100761.25;5072983;28;8830;-63
2022/05/08 00:22:17;;;;;;;;;13.50;13.00;;;;;14.20;66.05;100760.78;5042104;28;8872;-64
2022/05/08 00:25:02;;;;;;;;;11.25;11.25;;;;;14.17;66.15;100760.97;5035766;28;8852;-63
2022/05/08 00:27:30;;;;;;;;;9.75;7.50;;;;;14.14;66.30;100762.09;5035673;28;8836;-64
2022/05/08 00:29:58;;;;;;;;;8.75;8.50;;;;;14.12;66.27;100761.34;5036080;28;8837;-63
2022/05/08 00:32:26;;;;;;;;;9.25;9.25;;;;;14.10;66.61;100774.03;5036169;28;8856;-63
2022/05/08 00:34:53;;;;;;;;;14.00;11.00;;;;;14.09;66.72;100768.78;5035974;28;8866;-64
2022/05/08 00:37:21;;;;;;;;;12.00;10.00;;;;;14.09;66.49;100763.44;5035700;28;9522;-63
2022/05/08 00:39:49;;;;;;;;;9.00;7.00;;;;;14.07;66.67;100771.63;5036006;28;8859;-65
2022/05/08 00:42:17;;;;;;;;;10.50;10.50;;;;;14.06;66.57;100769.91;5036724;28;8844;-64
2022/05/08 00:44:44;;;;;;;;;9.50;9.50;;;;;14.05;66.64;100773.53;5037607;28;8881;-63
2022/05/08 00:47:12;;;;;;;;;10.00;8.00;;;;;14.04;66.87;100765.66;5037436;28;8832;-64
2022/05/08 00:49:41;;;;;;;;;9.00;8.00;;;;;14.01;66.45;100766.75;5040989;28;9622;-64
2022/05/08 00:52:09;;;;;;;;;9.25;8.00;;;;;14.01;66.54;100766.75;5055904;28;8849;-64
2022/05/08 00:54:37;;;;;;;;;8.50;7.50;;;;;14.03;66.23;100763.94;5054968;28;8931;-64
2022/05/08 00:57:06;;;;;;;;;10.50;9.75;;;;;14.00;66.62;100772.22;5055330;28;8911;-64
2022/05/08 00:59:34;;;;;;;;;7.00;6.25;;;;;13.97;66.61;100775.16;5055089;28;8822;-64
2022/05/08 01:02:02;;;;;;;;;7.00;6.00;;;;;13.92;66.65;100774.66;5055400;28;8853;-64
2022/05/08 01:04:30;;;;;;;;;7.00;6.75;;;;;13.89;66.97;100773.06;5055358;28;8839;-64
2022/05/08 01:06:58;;;;;;;;;7.00;4.00;;;;;13.85;66.56;100778.78;5055155;28;8919;-63
2022/05/08 01:09:25;;;;;;;;;9.00;8.50;;;;;13.82;66.98;100776.38;5055652;28;8846;-63
2022/05/08 01:11:53;;;;;;;;;7.00;6.00;;;;;13.78;66.75;100780.25;5055750;28;8838;-64
2022/05/08 01:14:22;;;;;;;;;7.00;7.00;;;;;13.73;66.91;100785.16;5055586;28;8862;-64
2022/05/08 01:16:49;;;;;;;;;7.00;6.00;;;;;13.70;67.08;100780.00;5055935;28;8985;-64
2022/05/08 01:19:17;;;;;;;;;6.00;5.00;;;;;13.65;67.25;100780.38;5056333;28;9860;-64
2022/05/08 01:21:45;;;;;;;;;6.75;6.75;;;;;13.64;66.65;100788.53;5046271;28;8894;-64
2022/05/08 01:24:14;;;;;;;;;10.75;10.00;;;;;13.60;67.45;100779.03;5055860;28;8838;-64
2022/05/08 01:26:42;;;;;;;;;4.50;4.50;;;;;13.59;67.53;100788.06;5056446;28;8842;-63
2022/05/08 01:29:10;;;;;;;;;6.75;6.25;;;;;13.58;67.47;100781.00;5056628;28;8848;-64
2022/05/08 01:31:37;;;;;;;;;4.50;4.50;;;;;13.56;67.65;100785.59;5056082;28;9717;-64
2022/05/08 01:34:05;;;;;;;;;7.00;6.00;;;;;13.52;67.82;100787.66;5056049;28;8876;-64
2022/05/08 01:36:33;;;;;;;;;8.50;8.50;;;;;13.46;67.77;100790.84;5055108;28;8854;-63
2022/05/08 01:39:01;;;;;;;;;7.00;7.00;;;;;13.44;67.18;100791.94;5055144;28;8862;-63
2022/05/08 01:41:28;;;;;;;;;7.50;6.50;;;;;13.40;68.04;100791.31;5054894;28;8838;-64
2022/05/08 01:43:56;;;;;;;;;8.25;8.25;;;;;13.39;67.84;100794.09;5054740;28;8984;-64
2022/05/08 01:46:24;;;;;;;;;10.50;9.00;;;;;13.35;67.92;100792.66;5055850;28;8852;-63
2022/05/08 01:48:51;;;;;;;;;6.50;6.25;;;;;13.34;67.89;100796.25;5056375;28;8827;-63
2022/05/08 01:51:20;;;;;;;;;9.25;9.25;;;;;13.33;67.83;100797.25;5072502;28;8916;-63
2022/05/08 01:53:47;;;;;;;;;6.50;6.25;;;;;13.33;67.70;100791.88;5075595;28;8970;-63
2022/05/08 01:56:15;;;;;;;;;9.50;7.25;;;;;13.33;67.97;100800.78;5075507;28;8840;-64
2022/05/08 01:58:47;;;;;;;;;6.00;6.00;;;;;13.31;67.80;100797.38;5076118;28;8844;-63
2022/05/08 02:01:15;;;;;;;;;8.75;5.00;;;;;13.29;67.74;100798.47;5076115;28;8820;-63
2022/05/08 02:03:43;;;;;;;;;9.00;8.00;;;;;13.26;67.60;100809.38;5075664;28;8850;-63
2022/05/08 02:06:11;;;;;;;;;8.00;7.50;;;;;13.21;68.01;100807.06;5055153;28;8831;-63
2022/05/08 02:08:38;;;;;;;;;10.00;9.50;;;;;13.14;67.76;100810.34;5055518;28;8880;-63
2022/05/08 02:11:07;;;;;;;;;9.00;9.00;;;;;13.08;68.28;100810.78;5054849;28;8834;-63
2022/05/08 02:13:36;;;;;;;;;6.50;6.50;;;;;13.03;68.08;100803.13;5054644;28;8827;-63
2022/05/08 02:16:03;;;;;;;;;7.50;6.50;;;;;12.99;68.27;100806.16;5055237;28;8838;-63
2022/05/08 02:18:31;;;;;;;;;6.50;6.00;;;;;12.97;68.31;100808.06;5055090;28;9846;-64
2022/05/08 02:20:59;;;;;;;;;10.00;9.00;;;;;12.95;68.41;100810.00;5064901;28;8874;-64
2022/05/08 02:23:26;;;;;;;;;2.50;2.00;;;;;12.89;68.30;100807.75;5055238;28;8834;-65
2022/05/08 02:25:56;;;;;;;;;6.00;6.00;;;;;12.84;68.19;100813.47;5055588;28;8835;-63
2022/05/08 02:28:24;;;;;;;;;9.00;7.00;;;;;12.82;68.77;100799.34;5055531;28;8836;-64
2022/05/08 02:30:52;;;;;;;;;6.25;6.00;;;;;12.78;68.44;100813.06;5055719;28;8859;-64
2022/05/08 02:33:21;;;;;;;;;10.50;7.00;;;;;12.76;68.47;100815.00;5053828;28;8841;-63
2022/05/08 02:35:49;;;;;;;;;9.25;7.50;;;;;12.73;68.42;100815.22;5054015;28;8935;-65
2022/05/08 02:38:17;;;;;;;;;9.75;8.00;;;;;12.67;68.38;100819.22;5053743;28;8845;-64
2022/05/08 02:40:44;;;;;;;;;7.00;6.75;;;;;12.63;68.49;100816.88;5054162;28;8856;-64
2022/05/08 02:43:14;;;;;;;;;10.00;8.50;;;;;12.56;68.92;100815.63;5053957;28;8868;-63
2022/05/08 02:45:42;;;;;;;;;8.50;7.50;;;;;12.55;68.74;100805.91;5053689;28;8945;-64
2022/05/08 02:48:10;;;;;;;;;10.75;8.00;;;;;12.51;68.68;100815.09;5053855;28;8846;-64
2022/05/08 02:50:38;;;;;;;;;9.00;8.00;;;;;12.46;69.12;100815.44;5043225;28;8923;-63
2022/05/08 02:53:05;;;;;;;;;7.00;7.00;;;;;12.45;69.02;100820.94;5033817;28;8829;-64
2022/05/08 02:58:34;;;;;;;;;10.00;9.25;;;;;12.42;69.27;100821.13;5034290;28;9162;-66
2022/05/08 03:01:02;;;;;;;;;11.50;10.50;;;;;12.37;69.04;100818.78;5034229;28;8845;-64
2022/05/08 03:03:30;;;;;;;;;9.75;9.50;;;;;12.36;68.80;100811.75;5033568;28;8854;-63
2022/05/08 03:05:58;;;;;;;;;10.00;9.00;;;;;12.37;68.63;100812.59;5033663;28;8860;-64
2022/05/08 03:08:26;;;;;;;;;10.00;9.50;;;;;12.35;68.91;100807.38;5034193;28;8837;-63
2022/05/08 03:13:38;;;;;;;;;13.50;12.00;;;;;12.27;68.87;100817.78;5033828;28;8852;-64
2022/05/08 03:16:06;;;;;;;;;12.50;10.00;;;;;12.24;69.33;100815.31;5033971;28;9015;-64
2022/05/08 03:18:34;;;;;;;;;12.00;10.00;;;;;12.22;69.01;100817.25;5036006;28;8845;-64
2022/05/08 03:21:02;;;;;;;;;12.00;10.75;;;;;12.17;69.39;100822.06;5052216;28;8893;-64
2022/05/08 03:23:30;;;;;;;;;10.00;10.00;;;;;12.19;68.99;100824.63;5057389;28;8834;-64
2022/05/08 03:25:57;;;;;;;;;8.00;7.50;;;;;12.19;68.86;100832.63;5057507;28;8860;-64
2022/05/08 03:28:25;;;;;;;;;11.00;9.75;;;;;12.21;68.84;100833.38;5057704;28;8916;-64
2022/05/08 03:30:53;;;;;;;;;6.75;6.75;;;;;12.20;69.32;100834.34;5057288;28;8838;-63
2022/05/08 03:33:21;;;;;;;;;12.00;7.00;;;;;12.14;68.95;100837.44;5057674;28;8849;-68
2022/05/08 03:35:48;;;;;;;;;7.00;6.50;;;;;12.06;68.96;100838.00;5056997;28;8899;-63
2022/05/08 03:38:18;;;;;;;;;4.00;4.00;;;;;12.00;69.02;100835.75;5057445;28;8858;-64
2022/05/08 03:40:45;;;;;;;;;4.50;4.00;;;;;11.91;68.93;100840.88;5056945;28;8830;-63
2022/05/08 03:43:13;;;;;;;;;6.00;5.00;;;;;11.85;69.41;100840.47;5056911;28;8848;-64
2022/05/08 03:45:40;;;;;;;;;3.00;3.00;;;;;11.82;69.81;100838.03;5057289;28;8834;-64
2022/05/08 03:48:08;;;;;;;;;6.50;6.00;;;;;11.78;69.81;100842.75;5057362;28;8853;-64
2022/05/08 03:50:36;;;;;;;;;6.00;3.75;;;;;11.77;69.64;100843.72;5044629;28;8860;-65
2022/05/08 03:53:03;;;;;;;;;4.50;3.00;;;;;11.73;69.05;100844.00;5037228;28;8846;-64
2022/05/08 03:55:31;;;;;;;;;4.50;4.00;;;;;11.67;69.56;100845.28;5036692;28;8825;-64
2022/05/08 03:57:59;;;;;;;;;4.00;4.00;;;;;11.65;69.42;100846.34;5036917;28;8847;-64
2022/05/08 04:00:27;;;;;;;;;5.50;4.00;;;;;11.64;69.60;100840.19;5036994;28;8856;-63
2022/05/08 04:02:55;;;;;;;;;6.00;4.00;;;;;11.64;69.17;100847.31;5036854;28;8833;-64
2022/05/08 04:05:23;;;;;;;;;3.00;3.00;;;;;11.64;69.13;100836.66;5038141;28;8848;-64
2022/05/08 04:07:51;;;;;;;;;6.00;5.00;;;;;11.59;69.38;100850.31;5038632;28;8973;-63
2022/05/08 04:10:19;;;;;;;;;5.00;3.75;;;;;11.57;69.42;100846.88;5038444;28;8840;-64
2022/05/08 04:12:47;;;;;;;;;3.00;3.00;;;;;11.56;69.45;100847.81;5038127;28;8829;-63
2022/05/08 04:17:57;;;;;;;;;7.50;6.25;;;;;11.54;69.41;100846.22;5036082;28;8883;-63
2022/05/08 04:20:25;;;;;;;;;5.50;3.00;;;;;11.51;69.24;100847.28;5047703;28;8830;-63
2022/05/08 04:25:38;;;;;;;;;3.25;1.50;;;;;11.45;69.44;100854.88;5058031;28;8838;-65
2022/05/08 04:28:06;;;;;;;;;1.00;1.00;;;;;11.45;69.44;100849.53;5057473;28;8842;-64
2022/05/08 04:30:34;;;;;;;;;3.00;2.50;;;;;11.45;69.06;100852.19;5057308;28;8973;-64
2022/05/08 04:33:02;;;;;;;;;5.50;4.00;;;;;11.50;69.30;100855.38;5057839;28;8865;-64
2022/05/08 04:35:30;;;;;;;;;3.75;3.00;;;;;11.53;68.61;100855.19;5057633;28;8841;-63
2022/05/08 04:37:58;;;;;;;;;3.25;3.25;;;;;11.54;68.99;100844.38;5057816;28;8830;-63
2022/05/08 04:40:25;;;;;;;;;4.00;3.25;;;;;11.52;68.56;100854.31;5057324;28;8852;-67
2022/05/08 04:42:53;;;;;;;;;3.00;3.00;;;;;11.51;68.37;100857.94;5057901;28;8978;-63
2022/05/08 04:45:21;;;;;;;;;3.50;3.00;;;;;11.51;68.65;100849.13;5057141;28;8968;-65
2022/05/08 04:47:54;;;;;;;;;2.50;2.50;;;;;11.53;68.43;100856.03;5056744;28;8842;-63
2022/05/08 04:50:22;;;;;;;;;4.00;3.50;;;;;11.55;68.67;100859.47;5046460;28;8821;-65
2022/05/08 04:52:50;;;;;;;;;3.00;3.00;;;;;11.58;68.81;100864.59;5036633;28;8964;-64
2022/05/08 04:55:17;;;;;;;;;4.00;3.00;;;;;11.57;68.64;100865.53;5036307;28;8856;-64
2022/05/08 04:57:45;;;;;;;;;4.50;3.00;;;;;11.60;68.54;100872.50;5036267;28;8820;-63
2022/05/08 05:00:13;;;;;;;;;3.00;3.00;;;;;11.62;68.16;100874.13;5036501;28;8841;-64
2022/05/08 05:02:41;;;;;;;;;3.00;2.50;;;;;11.62;68.57;100875.91;5036311;28;8848;-63
2022/05/08 05:05:09;;;;;;;;;6.75;4.00;;;;;11.66;68.32;100878.28;5036546;28;8845;-63
2022/05/08 05:07:37;;;;;;;;;1.50;1.50;;;;;11.69;67.92;100879.88;5036335;28;8870;-63
2022/05/08 05:10:05;;;;;;;;;4.00;3.50;;;;;11.70;68.15;100879.78;5037136;28;8978;-63
2022/05/08 05:12:32;;;;;;;;;3.00;1.50;;;;;11.71;68.13;100883.28;5036943;28;8836;-63
2022/05/08 05:15:01;;;;;;;;;6.00;4.00;;;;;11.70;68.21;100887.78;5037251;28;8964;-64
2022/05/08 05:17:30;;;;;;;;;3.50;3.00;;;;;11.74;68.03;100885.75;5037223;28;8859;-63
2022/05/08 05:19:57;;;;;;;;;0.00;0.00;;;;;11.73;67.86;100892.03;5045554;28;8826;-65
2022/05/08 05:22:25;;;;;;;;;2.50;1.00;;;;;11.70;68.12;100898.47;5056785;28;8940;-63
2022/05/08 05:24:53;;;;;;;;;2.50;2.00;;;;;11.70;68.10;100905.59;5056225;28;8985;-64
2022/05/08 05:27:21;;;;;;;;;3.75;3.75;;;;;11.70;67.97;100898.47;5056390;28;8880;-64
2022/05/08 05:29:49;;;;;;;;;3.00;2.50;;;;;11.68;68.00;100907.53;5056106;28;8892;-63
2022/05/08 05:32:17;;;;;;;;;3.50;3.00;;;;;11.66;68.17;100907.63;5055998;28;8837;-65
2022/05/08 05:34:45;;;;;;;;;4.00;3.00;;;;;11.63;68.04;100910.50;5056621;28;8948;-63
2022/05/08 05:37:13;;;;;;;;;0.00;0.00;;;;;11.63;68.31;100906.97;5056149;28;8826;-63
2022/05/08 05:39:41;;;;;;;;;6.75;5.00;;;;;11.64;67.89;100912.22;5056082;28;8834;-63
2022/05/08 05:42:09;;;;;;;;;3.00;2.50;;;;;11.68;68.18;100910.19;5055202;28;8842;-63
2022/05/08 05:44:37;;;;;;;;;3.00;3.00;;;;;11.71;67.69;100913.50;5055433;28;8834;-63
2022/05/08 05:49:50;;;;;;;;;3.00;3.00;;;;;11.81;67.30;100913.69;5039341;28;8834;-63
2022/05/08 05:52:18;;;;;;;;;1.50;1.50;;;;;11.82;67.49;100921.59;5054909;28;8868;-64
2022/05/08 05:54:45;;;;;;;;;1.50;1.50;;;;;11.85;67.18;100926.75;5054704;28;8976;-64
2022/05/08 05:57:19;;;;;;;;;3.75;3.25;;;;;11.92;67.01;100925.38;5054352;28;8961;-64
2022/05/08 05:59:47;;;;;;;;;2.50;1.50;;;;;11.99;67.02;100924.81;5054568;28;8834;-63
2022/05/08 06:02:14;;;;;;;;;1.00;1.00;;;;;12.06;66.95;100936.78;5054653;28;8838;-64
2022/05/08 06:04:42;;;;;;;;;0.00;0.00;;;;;12.10;66.57;100937.44;5054256;28;8856;-64
2022/05/08 06:07:10;;;;;;;;;1.00;1.00;;;;;12.13;66.50;100930.06;5054706;28;8846;-63
2022/05/08 06:09:38;;;;;;;;;3.25;1.50;;;;;12.12;66.63;100930.16;5054023;28;8864;-64
2022/05/08 06:12:06;;;;;;;;;2.00;1.50;;;;;12.14;66.50;100938.91;5055238;28;8838;-64
2022/05/08 06:14:33;;;;;;;;;2.50;2.00;;;;;12.18;66.28;100937.75;5054805;28;8853;-63
2022/05/08 06:17:01;;;;;;;;;4.00;3.00;;;;;12.25;66.05;100936.34;5055038;28;8838;-63
2022/05/08 06:19:31;;;;;;;;;2.50;1.00;;;;;12.31;66.39;100941.25;5054875;28;8876;-63
2022/05/08 06:21:58;;;;;;;;;3.50;3.25;;;;;12.40;66.18;100940.59;5034905;28;8869;-63
2022/05/08 06:24:26;;;;;;;;;7.00;4.00;;;;;12.47;66.27;100939.19;5034668;28;8918;-64
2022/05/08 06:26:54;;;;;;;;;1.00;1.00;;;;;12.51;65.93;100944.22;5035500;28;8836;-64
2022/05/08 06:29:22;;;;;;;;;4.00;4.00;;;;;12.61;65.73;100947.09;5035931;28;9609;-63
2022/05/08 06:31:51;;;;;;;;;5.25;4.00;;;;;12.65;65.27;100936.06;5035847;28;8853;-63
2022/05/08 06:34:19;;;;;;;;;6.00;4.00;;;;;12.68;65.53;100941.19;5035254;28;8854;-64
2022/05/08 06:36:46;;;;;;;;;3.75;3.75;;;;;12.66;65.29;100931.56;5035437;28;8914;-64
2022/05/08 06:39:14;;;;;;;;;3.00;3.00;;;;;12.64;65.36;100938.84;5035563;28;8850;-64
2022/05/08 06:41:42;;;;;;;;;3.50;3.50;;;;;12.62;65.70;100944.28;5035427;28;8848;-63
2022/05/08 06:44:10;;;;;;;;;3.50;3.50;;;;;12.65;65.05;100940.53;5035131;28;8970;-63
2022/05/08 06:46:38;;;;;;;;;3.00;3.00;;;;;12.70;65.50;100941.91;5048530;28;8822;-63
2022/05/08 06:49:06;;;;;;;;;3.50;3.50;;;;;12.77;65.26;100937.00;5054705;28;9899;-63
2022/05/08 06:51:34;;;;;;;;;4.50;3.50;;;;;12.84;64.81;100940.94;5055241;28;8862;-64
2022/05/08 06:54:02;;;;;;;;;3.00;3.00;;;;;12.91;64.36;100948.38;5058567;28;8837;-64
2022/05/08 06:56:31;;;;;;;;;6.25;3.25;;;;;12.93;64.41;100953.63;5058885;28;8840;-64
2022/05/08 07:01:44;;;;;;;;;3.00;2.00;;;;;12.96;64.39;100946.25;5059415;28;8858;-63
2022/05/08 07:04:11;;;;;;;;;4.00;3.00;;;;;13.01;64.52;100951.28;5059313;28;8919;-64
2022/05/08 07:06:39;;;;;;;;;4.50;3.50;;;;;13.08;64.26;100947.19;5059485;28;9495;-64
2022/05/08 07:09:13;;;;;;;;;2.50;2.50;;;;;13.17;64.00;100960.72;5057975;28;8941;-63
2022/05/08 07:11:41;;;;;;;;;3.00;2.50;;;;;13.27;63.61;100952.84;5058661;28;9504;-63
2022/05/08 07:14:09;;;;;;;;;4.00;4.00;;;;;13.37;63.59;100951.22;5058912;28;8858;-63
2022/05/08 07:16:36;;;;;;;;;3.00;3.00;;;;;13.49;63.50;100955.63;5056528;28;8830;-64
2022/05/08 07:19:05;;;;;;;;;3.00;3.00;;;;;13.69;63.23;100952.31;5058846;28;8826;-63
2022/05/08 07:21:32;;;;;;;;;4.00;3.75;;;;;13.89;62.67;100954.31;5058487;28;8858;-63
2022/05/08 07:24:00;;;;;;;;;8.00;7.00;;;;;14.06;62.38;100954.72;5058958;28;8838;-63
2022/05/08 07:26:28;;;;;;;;;1.00;1.00;;;;;14.15;61.88;100954.00;5057986;28;8854;-63
2022/05/08 07:28:56;;;;;;;;;3.00;3.00;;;;;14.27;61.76;100946.88;5056984;28;8868;-64
2022/05/08 07:31:24;;;;;;;;;3.00;3.00;;;;;14.36;61.62;100955.00;5057353;28;8830;-64
2022/05/08 07:36:12;;;;;;;;;3.75;3.00;;;;;14.45;61.14;100953.44;5057229;28;8863;-64
2022/05/08 07:36:39;;;;;;;;;4.00;3.50;;;;;14.58;60.93;100948.81;5057266;28;8848;-64
2022/05/08 07:39:07;;;;;;;;;3.00;3.00;;;;;14.61;61.04;100949.41;5057869;28;8960;-64
2022/05/08 07:41:35;;;;;;;;;3.25;3.25;;;;;14.63;61.10;100958.19;5058589;28;8864;-63
2022/05/08 07:44:03;;;;;;;;;2.00;2.00;;;;;14.60;61.04;100960.25;5058774;28;8842;-63
2022/05/08 07:46:30;;;;;;;;;3.00;3.00;;;;;14.53;61.02;100959.03;5047548;28;9589;-63
2022/05/08 07:48:58;;;;;;;;;3.00;3.00;;;;;14.46;61.51;100957.81;5038437;28;8841;-63
2022/05/08 07:51:26;;;;;;;;;4.00;3.25;;;;;14.41;61.40;100957.34;5036894;28;8860;-65
2022/05/08 07:53:54;;;;;;;;;4.50;3.50;;;;;14.46;61.39;100958.69;5037298;28;8968;-64
2022/05/08 07:56:21;;;;;;;;;5.50;3.75;;;;;14.60;61.06;100958.44;5036868;28;8914;-63
2022/05/08 07:58:49;;;;;;;;;1.00;1.00;;;;;14.69;60.89;100962.19;5036948;28;9505;-63
2022/05/08 08:01:17;;;;;;;;;1.00;1.00;;;;;14.73;60.97;100961.81;5036061;28;9517;-63
2022/05/08 08:03:45;;;;;;;;;3.00;3.00;;;;;14.77;60.72;100955.25;5035808;28;9725;-63
2022/05/08 08:06:13;;;;;;;;;3.50;3.50;;;;;14.82;60.58;100962.94;5036065;28;8966;-63
2022/05/08 08:08:42;;;;;;;;;4.75;3.25;;;;;14.83;60.36;100964.63;5036308;28;8894;-63
2022/05/08 08:11:11;;;;;;;;;0.25;0.25;;;;;14.86;60.67;100975.13;5036196;28;8860;-64
2022/05/08 08:13:39;;;;;;;;;3.00;3.00;;;;;14.89;60.42;100972.19;5037306;28;9502;-64
2022/05/08 08:16:06;;;;;;;;;4.50;3.50;;;;;14.89;60.73;100980.22;5044976;28;8834;-64
2022/05/08 08:18:35;;;;;;;;;2.50;1.00;;;;;14.87;60.78;100984.88;5058048;28;8822;-64
2022/05/08 08:21:09;;;;;;;;;3.50;2.50;;;;;14.84;61.08;100991.34;5057733;28;8866;-63
2022/05/08 08:23:37;;;;;;;;;3.00;3.00;;;;;14.86;60.96;100985.84;5056968;28;8858;-64
2022/05/08 08:26:04;;;;;;;;;2.50;1.00;;;;;14.92;60.59;100993.38;5057027;28;8849;-64
2022/05/08 08:28:34;;;;;;;;;3.25;3.25;;;;;14.95;60.29;100996.66;5057316;28;8871;-64
2022/05/08 08:31:01;;;;;;;;;3.00;2.00;;;;;14.98;60.52;100995.56;5057560;28;8840;-64
2022/05/08 08:33:30;;;;;;;;;4.00;3.50;;;;;15.04;60.39;100997.75;5057701;28;8848;-64
2022/05/08 08:35:58;;;;;;;;;3.50;3.25;;;;;15.11;60.17;100998.97;5056740;28;8837;-64
2022/05/08 08:38:27;;;;;;;;;3.75;3.00;;;;;15.15;60.00;101003.97;5055521;28;8857;-64
2022/05/08 08:40:54;;;;;;;;;3.75;3.75;;;;;15.17;59.80;101001.16;5055999;28;9669;-64
2022/05/08 08:43:22;;;;;;;;;3.25;3.25;;;;;15.18;59.83;101002.88;5056297;28;8848;-65
2022/05/08 08:48:35;;;;;;;;;5.00;5.00;;;;;15.21;60.37;101007.97;5037155;28;8853;-64
2022/05/08 08:51:03;;;;;;;;;3.00;3.00;;;;;15.31;59.61;101019.69;5036525;28;8876;-64
2022/05/08 08:53:31;;;;;;;;;5.50;4.75;;;;;15.38;59.70;101007.47;5036724;28;8915;-64
2022/05/08 08:56:00;;;;;;;;;4.50;4.50;;;;;15.46;59.63;101013.09;5036858;28;8876;-64
2022/05/08 08:58:28;;;;;;;;;5.50;5.50;;;;;15.56;59.68;101014.00;5036759;28;8836;-65
2022/05/08 09:00:56;;;;;;;;;4.50;4.00;;;;;15.64;59.12;101016.91;5036891;28;8890;-64
2022/05/08 09:03:26;;;;;;;;;6.50;5.00;;;;;15.77;59.14;101018.44;5036523;28;8836;-65
2022/05/08 09:05:53;;;;;;;;;3.00;3.00;;;;;15.95;58.74;101018.72;5035681;28;8852;-64
2022/05/08 09:08:21;;;;;;;;;6.75;6.00;;;;;16.13;58.28;101003.72;5036461;28;8852;-64
2022/05/08 09:10:49;;;;;;;;;7.25;5.75;;;;;16.26;57.75;101008.75;5036552;28;8849;-64
2022/05/08 09:13:18;;;;;;;;;4.00;4.00;;;;;16.43;57.85;101008.22;5036748;28;8832;-64
2022/05/08 09:15:46;;;;;;;;;4.00;4.00;;;;;16.61;57.23;101003.03;5043158;28;8822;-64
2022/05/08 09:18:14;;;;;;;;;7.00;6.00;;;;;16.82;56.64;101010.09;5056892;28;8846;-64
2022/05/08 09:20:41;;;;;;;;;3.00;3.00;;;;;17.04;56.83;101006.34;5056268;28;8901;-64
2022/05/08 09:23:10;;;;;;;;;7.75;7.25;;;;;17.18;56.35;101003.25;5055654;28;8976;-64
2022/05/08 09:25:37;;;;;;;;;6.00;6.00;;;;;17.27;56.56;100999.72;5055040;28;8865;-64
2022/05/08 09:28:25;;;;;;;;;3.50;3.00;;;;;17.31;55.70;101007.41;5054335;28;9585;-64
2022/05/08 09:30:53;;;;;;;;;6.50;6.50;;;;;17.30;56.06;100997.63;5056537;28;9666;-64
2022/05/08 09:33:21;;;;;;;;;6.00;5.50;;;;;17.44;55.82;101005.34;5056347;28;8865;-65
2022/05/08 09:35:51;;;;;;;;;6.00;5.50;;;;;17.58;55.50;100996.84;5056638;28;8960;-65
2022/05/08 09:38:24;;;;;;;;;5.60;5.60;;;;;17.73;55.33;101006.22;5056352;28;8919;-64
2022/05/08 09:40:52;;;;;;;;;4.00;3.40;;;;;17.96;55.38;100995.97;5056394;28;8856;-64
2022/05/08 09:43:20;;;;;;;;;4.00;4.00;;;;;18.18;54.26;100996.53;5055712;28;9546;-64
2022/05/08 09:45:48;;;;;;;;;5.60;5.20;;;;;18.57;54.02;100997.31;5049182;28;9611;-64
2022/05/08 09:48:16;;;;;;;;;6.40;6.40;;;;;18.99;52.96;100994.03;5036134;28;8840;-64
2022/05/08 09:50:44;;;;;;;;;6.40;6.40;;;;;19.19;52.31;101000.16;5036061;28;8869;-64
2022/05/08 09:53:11;;;;;;;;;6.00;5.20;;;;;19.19;52.57;100997.47;5035713;28;8933;-64
2022/05/08 09:55:39;;;;;;;;;6.00;5.60;;;;;19.13;52.96;101007.00;5035815;28;8848;-64
2022/05/08 09:58:07;;;;;;;;;9.40;7.80;;;;;19.06;53.31;100997.78;5034545;28;8836;-65
2022/05/08 10:00:35;;;;;;;;;6.80;5.00;;;;;19.03;53.44;100995.41;5034823;28;8844;-64
2022/05/08 10:03:05;;;;;;;;;3.60;3.60;;;;;19.01;53.21;100994.72;5033970;28;9853;-64
2022/05/08 10:05:33;;;;;;;;;8.80;7.00;;;;;18.90;53.39;100997.59;5033821;28;8875;-64
2022/05/08 10:08:01;;;;;;;;;7.00;6.00;;;;;19.01;53.29;100993.84;5035225;28;9600;-64
2022/05/08 10:16:00;;;;;;;;;6.00;6.00;;;;;19.22;52.82;100992.66;5042695;28;8957;-65
2022/05/08 10:18:28;;;;;;;;;6.00;5.80;;;;;19.47;52.10;100994.59;5055232;28;8830;-64
2022/05/08 10:20:56;;;;;;;;;9.40;5.80;;;;;20.15;51.51;100982.22;5055139;28;9510;-64
2022/05/08 10:23:24;;;;;;;;;2.20;2.20;;;;;20.59;50.12;100984.75;5054048;28;9906;-64
2022/05/08 10:25:52;;;;;;;;;4.60;4.00;;;;;21.04;49.53;100988.06;5055880;28;9637;-64
2022/05/08 10:28:20;;;;;;;;;5.00;5.00;;;;;21.19;49.66;100987.25;5055148;28;8834;-64
2022/05/08 10:30:47;;;;;;;;;4.20;4.20;;;;;21.45;48.76;100979.03;5055300;28;8972;-64
2022/05/08 10:33:15;;;;;;;;;4.80;4.80;;;;;21.55;48.85;100972.44;5054380;28;8857;-64
2022/05/08 10:35:43;;;;;;;;;7.00;7.00;;;;;22.12;47.75;100974.22;5054169;28;8842;-64
2022/05/08 10:38:12;;;;;;;;;7.20;6.60;;;;;22.53;47.23;100975.03;5054058;28;8872;-65
2022/05/08 10:40:40;;;;;;;;;7.00;4.00;;;;;22.63;47.18;100973.78;5053437;28;8831;-64
2022/05/08 10:43:08;;;;;;;;;4.80;4.00;;;;;22.90;46.60;100970.66;5054167;28;8864;-65
2022/05/08 10:45:37;;;;;;;;;7.20;6.20;;;;;23.13;46.11;100974.28;5045741;28;8823;-65
2022/05/08 10:48:07;;;;;;;;;7.20;6.20;;;;;23.55;45.25;100968.47;5033058;28;8836;-66
2022/05/08 10:50:34;;;;;;;;;6.00;5.00;;;;;23.87;45.23;100969.13;5033057;28;8898;-65
2022/05/08 10:53:02;;;;;;;;;9.20;6.40;;;;;24.11;44.74;100963.47;5034396;28;8848;-64
2022/05/08 10:55:30;;;;;;;;;5.20;5.20;;;;;24.42;44.74;100961.47;5034851;28;8919;-64
2022/05/08 10:57:58;;;;;;;;;4.60;4.40;;;;;24.82;43.28;100962.94;5035850;28;8959;-64
2022/05/08 11:00:26;;;;;;;;;4.40;3.80;;;;;24.93;43.95;100959.72;5035117;28;8971;-64
2022/05/08 11:02:54;;;;;;;;;7.80;6.00;;;;;24.77;43.96;100968.09;5034346;28;9549;-64
2022/05/08 11:05:22;;;;;;;;;5.80;5.20;;;;;24.67;44.37;100962.97;5034693;28;8958;-64
2022/05/08 11:07:50;;;;;;;;;6.00;5.00;;;;;24.56;44.29;100962.56;5035329;28;8840;-64
2022/05/08 11:10:18;;;;;;;;;5.40;5.40;;;;;24.24;44.41;100974.59;5034644;28;8844;-64
2022/05/08 11:12:46;;;;;;;;;3.20;2.40;;;;;23.71;45.86;100974.66;5033875;28;8866;-65
2022/05/08 11:15:13;;;;;;;;;2.00;2.00;;;;;23.33;45.96;100974.75;5037643;28;8912;-65
2022/05/08 11:17:41;;;;;;;;;4.40;4.40;;;;;22.83;46.95;100982.44;5053928;28;8830;-64
2022/05/08 11:20:09;;;;;;;;;5.40;4.80;;;;;22.39;47.19;100975.72;5034353;28;9482;-64
2022/05/08 11:22:37;;;;;;;;;5.00;4.20;;;;;22.14;48.10;100968.59;5048821;28;8873;-64
2022/05/08 11:25:05;;;;;;;;;4.40;4.00;;;;;22.00;48.27;100967.41;5053935;28;8868;-64
2022/05/08 11:27:33;;;;;;;;;4.00;4.00;;;;;22.10;47.52;100973.50;5053929;28;8842;-64
2022/05/08 11:30:05;;;;;;;;;4.00;4.00;;;;;22.34;47.22;100972.66;5053568;28;8850;-64
2022/05/08 11:38:05;;;;;;;;;2.00;1.20;;;;;22.75;45.96;100955.25;5053871;28;8864;-65
2022/05/08 11:40:33;;;;;;;;;4.00;4.00;;;;;23.10;44.52;100944.75;5058440;28;8952;-67
2022/05/08 11:43:00;;;;;;;;;2.40;2.40;;;;;23.77;43.32;100944.03;5058211;28;8846;-65
2022/05/08 11:45:28;;;;;;;;;5.20;5.20;;;;;24.54;42.72;100940.06;5063795;28;8862;-65
2022/05/08 11:47:56;;;;;;;;;4.60;4.60;;;;;25.15;41.25;100935.06;5078701;28;8966;-65
2022/05/08 11:50:24;;;;;;;;;4.00;4.00;;;;;25.65;39.82;100935.88;5077845;28;8860;-65
2022/05/08 11:52:51;;;;;;;;;4.60;4.60;;;;;26.10;40.08;100932.75;5077973;28;8954;-64
2022/05/08 11:55:21;;;;;;;;;5.00;4.60;;;;;26.57;39.28;100935.66;5078038;28;8840;-64
2022/05/08 11:57:50;;;;;;;;;3.80;3.00;;;;;26.90;38.15;100931.22;5078350;28;8863;-64
2022/05/08 12:00:18;;;;;;;;;2.20;2.20;;;;;26.95;38.45;100930.63;5077881;28;8943;-64
2022/05/08 12:02:51;;;;;;;;;2.60;2.60;;;;;27.24;37.95;100933.91;5078074;28;8961;-64
2022/05/08 12:05:21;;;;;;;;;2.40;2.40;;;;;27.53;37.84;100928.13;5076832;28;8842;-65
2022/05/08 12:07:48;;;;;;;;;3.00;3.00;;;;;27.77;37.38;100926.72;5076762;28;8844;-64